sensor_id;sensor_type;location;lat;lon;timestamp;temperature;humidity
16321;DHT22;8269;50.990;4.494;2022-11-15T00:00:30;10.30;99.90
16321;DHT22;8269;50.990;4.494;2022-11-15T00:02:56;10.40;99.90
16321;DHT22;8269;50.990;4.494;2022-11-15T00:05:21;10.50;99.90
16321;DHT22;8269;50.990;4.494;2022-11-15T00:07:47;10.60;99.90
16321;DHT22;8269;50.990;4.494;2022-11-15T00:10:15;10.70;99.90
16321;DHT22;8269;50.990;4.494;2022-11-15T00:12:41;10.70;99.90
16321;DHT22;8269;50.990;4.494;2022-11-15T00:15:08;10.70;99.90
16321;DHT22;8269;50.990;4.494;2022-11-15T00:17:34;10.70;99.90
16321;DHT22;8269;50.990;4.494;2022-11-15T00:19:59;10.90;99.90
16321;DHT22;8269;50.990;4.494;2022-11-15T00:22:31;10.90;99.90
16321;DHT22;8269;50.990;4.494;2022-11-15T00:24:58;10.90;99.90
16321;DHT22;8269;50.990;4.494;2022-11-15T00:27:23;10.90;99.90
16321;DHT22;8269;50.990;4.494;2022-11-15T00:29:49;10.90;99.90
16321;DHT22;8269;50.990;4.494;2022-11-15T00:32:15;10.90;99.90
16321;DHT22;8269;50.990;4.494;2022-11-15T00:34:40;10.90;99.90
16321;DHT22;8269;50.990;4.494;2022-11-15T00:37:06;10.90;99.90
16321;DHT22;8269;50.990;4.494;2022-11-15T00:39:32;11.00;99.90
16321;DHT22;8269;50.990;4.494;2022-11-15T00:41:57;10.90;99.90
16321;DHT22;8269;50.990;4.494;2022-11-15T00:44:23;10.90;99.90
16321;DHT22;8269;50.990;4.494;2022-11-15T00:46:48;10.90;99.90
16321;DHT22;8269;50.990;4.494;2022-11-15T00:49:14;11.00;99.90
16321;DHT22;8269;50.990;4.494;2022-11-15T00:51:39;11.00;99.90
16321;DHT22;8269;50.990;4.494;2022-11-15T00:54:05;11.10;99.90
16321;DHT22;8269;50.990;4.494;2022-11-15T00:56:31;11.10;99.90
16321;DHT22;8269;50.990;4.494;2022-11-15T00:58:57;11.10;99.90
16321;DHT22;8269;50.990;4.494;2022-11-15T01:01:23;11.10;99.90
16321;DHT22;8269;50.990;4.494;2022-11-15T01:03:49;11.10;99.90
16321;DHT22;8269;50.990;4.494;2022-11-15T01:06:14;11.10;99.90
16321;DHT22;8269;50.990;4.494;2022-11-15T01:08:40;11.10;99.90
16321;DHT22;8269;50.990;4.494;2022-11-15T01:11:09;11.10;99.90
16321;DHT22;8269;50.990;4.494;2022-11-15T01:13:36;11.10;99.90
16321;DHT22;8269;50.990;4.494;2022-11-15T01:16:12;11.10;99.90
16321;DHT22;8269;50.990;4.494;2022-11-15T01:18:38;11.10;99.90
16321;DHT22;8269;50.990;4.494;2022-11-15T01:21:09;11.10;99.90
16321;DHT22;8269;50.990;4.494;2022-11-15T01:23:35;11.10;99.90
16321;DHT22;8269;50.990;4.494;2022-11-15T01:26:02;11.10;99.90
16321;DHT22;8269;50.990;4.494;2022-11-15T01:28:38;11.10;99.90
16321;DHT22;8269;50.990;4.494;2022-11-15T01:31:08;11.10;99.90
16321;DHT22;8269;50.990;4.494;2022-11-15T01:33:35;11.20;99.90
16321;DHT22;8269;50.990;4.494;2022-11-15T01:36:22;11.20;99.90
16321;DHT22;8269;50.990;4.494;2022-11-15T01:38:53;11.20;99.90
16321;DHT22;8269;50.990;4.494;2022-11-15T01:41:25;11.20;99.90
16321;DHT22;8269;50.990;4.494;2022-11-15T01:43:53;11.20;99.90
16321;DHT22;8269;50.990;4.494;2022-11-15T01:46:33;11.20;99.90
16321;DHT22;8269;50.990;4.494;2022-11-15T01:49:03;11.10;99.90
16321;DHT22;8269;50.990;4.494;2022-11-15T01:51:31;11.20;99.90
16321;DHT22;8269;50.990;4.494;2022-11-15T01:54:02;11.20;99.90
16321;DHT22;8269;50.990;4.494;2022-11-15T01:56:31;11.20;99.90
16321;DHT22;8269;50.990;4.494;2022-11-15T01:59:00;11.20;99.90
16321;DHT22;8269;50.990;4.494;2022-11-15T02:01:28;11.20;99.90
16321;DHT22;8269;50.990;4.494;2022-11-15T02:03:59;11.20;99.90
16321;DHT22;8269;50.990;4.494;2022-11-15T02:06:27;11.20;99.90
16321;DHT22;8269;50.990;4.494;2022-11-15T02:08:53;11.20;99.90
16321;DHT22;8269;50.990;4.494;2022-11-15T02:11:22;11.10;99.90
16321;DHT22;8269;50.990;4.494;2022-11-15T02:13:48;11.20;99.90
16321;DHT22;8269;50.990;4.494;2022-11-15T02:16:48;11.10;99.90
16321;DHT22;8269;50.990;4.494;2022-11-15T02:19:27;11.10;99.90
16321;DHT22;8269;50.990;4.494;2022-11-15T02:30:44;11.10;99.90
16321;DHT22;8269;50.990;4.494;2022-11-15T02:36:54;11.10;99.90
16321;DHT22;8269;50.990;4.494;2022-11-15T02:39:23;11.00;99.90
16321;DHT22;8269;50.990;4.494;2022-11-15T02:42:00;11.00;99.90
16321;DHT22;8269;50.990;4.494;2022-11-15T02:44:37;10.90;99.90
16321;DHT22;8269;50.990;4.494;2022-11-15T02:47:07;10.90;99.90
16321;DHT22;8269;50.990;4.494;2022-11-15T02:49:48;10.90;99.90
16321;DHT22;8269;50.990;4.494;2022-11-15T02:52:19;10.80;99.90
16321;DHT22;8269;50.990;4.494;2022-11-15T02:54:56;10.80;99.90
16321;DHT22;8269;50.990;4.494;2022-11-15T02:57:51;10.80;99.90
16321;DHT22;8269;50.990;4.494;2022-11-15T03:00:19;10.80;99.90
16321;DHT22;8269;50.990;4.494;2022-11-15T03:11:09;10.80;99.90
16321;DHT22;8269;50.990;4.494;2022-11-15T03:19:44;10.90;99.90
16321;DHT22;8269;50.990;4.494;2022-11-15T03:21:51;10.90;99.90
16321;DHT22;8269;50.990;4.494;2022-11-15T03:24:19;10.90;99.90
16321;DHT22;8269;50.990;4.494;2022-11-15T03:26:48;10.90;99.90
16321;DHT22;8269;50.990;4.494;2022-11-15T03:29:23;10.90;99.90
16321;DHT22;8269;50.990;4.494;2022-11-15T03:32:03;10.90;99.90
16321;DHT22;8269;50.990;4.494;2022-11-15T03:37:00;10.90;99.90
16321;DHT22;8269;50.990;4.494;2022-11-15T03:39:27;10.90;99.90
16321;DHT22;8269;50.990;4.494;2022-11-15T03:42:22;10.90;99.90
16321;DHT22;8269;50.990;4.494;2022-11-15T03:47:51;10.90;99.90
16321;DHT22;8269;50.990;4.494;2022-11-15T03:50:21;10.80;99.90
16321;DHT22;8269;50.990;4.494;2022-11-15T03:52:48;10.90;99.90
16321;DHT22;8269;50.990;4.494;2022-11-15T03:55:20;10.90;99.90
16321;DHT22;8269;50.990;4.494;2022-11-15T03:57:47;10.90;99.90
16321;DHT22;8269;50.990;4.494;2022-11-15T04:00:14;10.80;99.90
16321;DHT22;8269;50.990;4.494;2022-11-15T04:02:39;10.90;99.90
16321;DHT22;8269;50.990;4.494;2022-11-15T04:05:05;10.90;99.90
16321;DHT22;8269;50.990;4.494;2022-11-15T04:07:31;10.90;99.90
16321;DHT22;8269;50.990;4.494;2022-11-15T04:09:56;10.80;99.90
16321;DHT22;8269;50.990;4.494;2022-11-15T04:12:29;10.80;99.90
16321;DHT22;8269;50.990;4.494;2022-11-15T04:14:59;10.80;99.90
16321;DHT22;8269;50.990;4.494;2022-11-15T04:17:51;10.80;99.90
16321;DHT22;8269;50.990;4.494;2022-11-15T04:23:08;10.80;99.90
16321;DHT22;8269;50.990;4.494;2022-11-15T04:25:54;10.70;99.90
16321;DHT22;8269;50.990;4.494;2022-11-15T04:28:20;10.70;99.90
16321;DHT22;8269;50.990;4.494;2022-11-15T04:30:46;10.70;99.90
16321;DHT22;8269;50.990;4.494;2022-11-15T04:33:12;10.70;99.90
16321;DHT22;8269;50.990;4.494;2022-11-15T04:35:37;10.70;99.90
16321;DHT22;8269;50.990;4.494;2022-11-15T04:38:05;10.70;99.90
16321;DHT22;8269;50.990;4.494;2022-11-15T04:40:31;10.70;99.90
16321;DHT22;8269;50.990;4.494;2022-11-15T04:42:57;10.70;99.90
16321;DHT22;8269;50.990;4.494;2022-11-15T04:45:23;10.60;99.90
16321;DHT22;8269;50.990;4.494;2022-11-15T04:47:49;10.60;99.90
16321;DHT22;8269;50.990;4.494;2022-11-15T04:50:15;10.60;99.90
16321;DHT22;8269;50.990;4.494;2022-11-15T04:52:43;10.60;99.90
16321;DHT22;8269;50.990;4.494;2022-11-15T04:55:10;10.60;99.90
16321;DHT22;8269;50.990;4.494;2022-11-15T04:57:36;10.60;99.90
16321;DHT22;8269;50.990;4.494;2022-11-15T05:00:08;10.60;99.90
16321;DHT22;8269;50.990;4.494;2022-11-15T05:02:34;10.60;99.90
16321;DHT22;8269;50.990;4.494;2022-11-15T05:05:18;10.60;99.90
16321;DHT22;8269;50.990;4.494;2022-11-15T05:07:43;10.60;99.90
16321;DHT22;8269;50.990;4.494;2022-11-15T05:10:09;10.50;99.90
16321;DHT22;8269;50.990;4.494;2022-11-15T05:12:35;10.50;99.90
16321;DHT22;8269;50.990;4.494;2022-11-15T05:15:01;10.40;99.90
16321;DHT22;8269;50.990;4.494;2022-11-15T05:17:27;10.40;99.90
16321;DHT22;8269;50.990;4.494;2022-11-15T05:19:52;10.40;99.90
16321;DHT22;8269;50.990;4.494;2022-11-15T05:22:19;10.40;99.90
16321;DHT22;8269;50.990;4.494;2022-11-15T05:24:44;10.40;99.90
16321;DHT22;8269;50.990;4.494;2022-11-15T05:27:10;10.40;99.90
16321;DHT22;8269;50.990;4.494;2022-11-15T05:29:36;10.30;99.90
16321;DHT22;8269;50.990;4.494;2022-11-15T05:32:04;10.40;99.90
16321;DHT22;8269;50.990;4.494;2022-11-15T05:34:30;10.20;99.90
16321;DHT22;8269;50.990;4.494;2022-11-15T05:36:56;10.20;99.90
16321;DHT22;8269;50.990;4.494;2022-11-15T05:39:22;10.20;99.90
16321;DHT22;8269;50.990;4.494;2022-11-15T05:41:54;10.10;99.90
16321;DHT22;8269;50.990;4.494;2022-11-15T05:44:22;10.10;99.90
16321;DHT22;8269;50.990;4.494;2022-11-15T05:46:50;10.00;99.90
16321;DHT22;8269;50.990;4.494;2022-11-15T05:49:21;10.10;99.90
16321;DHT22;8269;50.990;4.494;2022-11-15T05:51:48;10.10;99.90
16321;DHT22;8269;50.990;4.494;2022-11-15T05:54:15;9.90;99.90
16321;DHT22;8269;50.990;4.494;2022-11-15T05:56:41;10.00;99.90
16321;DHT22;8269;50.990;4.494;2022-11-15T05:59:08;9.90;99.90
16321;DHT22;8269;50.990;4.494;2022-11-15T06:01:34;9.80;99.90
16321;DHT22;8269;50.990;4.494;2022-11-15T06:04:00;9.80;99.90
16321;DHT22;8269;50.990;4.494;2022-11-15T06:06:27;9.70;99.90
16321;DHT22;8269;50.990;4.494;2022-11-15T06:08:53;9.70;99.90
16321;DHT22;8269;50.990;4.494;2022-11-15T06:11:19;9.70;99.90
16321;DHT22;8269;50.990;4.494;2022-11-15T06:13:44;9.70;99.90
16321;DHT22;8269;50.990;4.494;2022-11-15T06:16:10;9.70;99.90
16321;DHT22;8269;50.990;4.494;2022-11-15T06:18:36;9.70;99.90
16321;DHT22;8269;50.990;4.494;2022-11-15T06:21:02;9.70;99.90
16321;DHT22;8269;50.990;4.494;2022-11-15T06:23:32;9.70;99.90
16321;DHT22;8269;50.990;4.494;2022-11-15T06:25:59;9.80;99.90
16321;DHT22;8269;50.990;4.494;2022-11-15T06:28:29;9.80;99.90
16321;DHT22;8269;50.990;4.494;2022-11-15T06:30:55;9.80;99.90
16321;DHT22;8269;50.990;4.494;2022-11-15T06:33:21;9.70;99.90
16321;DHT22;8269;50.990;4.494;2022-11-15T06:35:47;9.60;99.90
16321;DHT22;8269;50.990;4.494;2022-11-15T06:38:13;9.60;99.90
16321;DHT22;8269;50.990;4.494;2022-11-15T06:40:39;9.50;99.90
16321;DHT22;8269;50.990;4.494;2022-11-15T06:43:06;9.40;99.90
16321;DHT22;8269;50.990;4.494;2022-11-15T06:45:32;9.40;99.90
16321;DHT22;8269;50.990;4.494;2022-11-15T06:47:57;9.30;99.90
16321;DHT22;8269;50.990;4.494;2022-11-15T06:50:24;9.20;99.90
16321;DHT22;8269;50.990;4.494;2022-11-15T06:52:49;9.10;99.90
16321;DHT22;8269;50.990;4.494;2022-11-15T06:55:15;9.00;99.90
16321;DHT22;8269;50.990;4.494;2022-11-15T06:57:51;8.90;99.90
16321;DHT22;8269;50.990;4.494;2022-11-15T07:00:18;8.90;99.90
16321;DHT22;8269;50.990;4.494;2022-11-15T07:02:45;8.80;99.90
16321;DHT22;8269;50.990;4.494;2022-11-15T07:05:11;8.70;99.90
16321;DHT22;8269;50.990;4.494;2022-11-15T07:07:37;8.70;99.90
16321;DHT22;8269;50.990;4.494;2022-11-15T07:10:04;8.60;99.90
16321;DHT22;8269;50.990;4.494;2022-11-15T07:12:30;8.60;99.90
16321;DHT22;8269;50.990;4.494;2022-11-15T07:14:55;8.60;99.90
16321;DHT22;8269;50.990;4.494;2022-11-15T07:17:21;8.60;99.90
16321;DHT22;8269;50.990;4.494;2022-11-15T07:19:47;8.60;99.90
16321;DHT22;8269;50.990;4.494;2022-11-15T07:22:13;8.60;99.90
16321;DHT22;8269;50.990;4.494;2022-11-15T07:24:38;8.60;99.90
16321;DHT22;8269;50.990;4.494;2022-11-15T07:27:04;8.60;99.90
16321;DHT22;8269;50.990;4.494;2022-11-15T07:29:29;8.60;99.90
16321;DHT22;8269;50.990;4.494;2022-11-15T07:31:55;8.60;99.90
16321;DHT22;8269;50.990;4.494;2022-11-15T07:34:20;8.60;99.90
16321;DHT22;8269;50.990;4.494;2022-11-15T07:36:46;8.60;99.90
16321;DHT22;8269;50.990;4.494;2022-11-15T07:39:12;8.70;99.90
16321;DHT22;8269;50.990;4.494;2022-11-15T07:41:38;8.70;99.90
16321;DHT22;8269;50.990;4.494;2022-11-15T07:44:05;8.70;99.90
16321;DHT22;8269;50.990;4.494;2022-11-15T07:46:31;8.80;99.90
16321;DHT22;8269;50.990;4.494;2022-11-15T07:48:57;8.80;99.90
16321;DHT22;8269;50.990;4.494;2022-11-15T07:51:23;8.80;99.90
16321;DHT22;8269;50.990;4.494;2022-11-15T07:53:48;8.80;99.90
16321;DHT22;8269;50.990;4.494;2022-11-15T07:56:14;8.80;99.90
16321;DHT22;8269;50.990;4.494;2022-11-15T07:58:40;8.80;99.90
16321;DHT22;8269;50.990;4.494;2022-11-15T08:01:07;8.90;99.90
16321;DHT22;8269;50.990;4.494;2022-11-15T08:03:34;9.00;99.90
16321;DHT22;8269;50.990;4.494;2022-11-15T08:06:00;9.10;99.90
16321;DHT22;8269;50.990;4.494;2022-11-15T08:08:26;9.30;99.90
16321;DHT22;8269;50.990;4.494;2022-11-15T08:10:52;9.40;99.90
16321;DHT22;8269;50.990;4.494;2022-11-15T08:13:17;9.60;99.90
16321;DHT22;8269;50.990;4.494;2022-11-15T08:15:43;9.90;99.90
16321;DHT22;8269;50.990;4.494;2022-11-15T08:18:14;9.90;99.90
16321;DHT22;8269;50.990;4.494;2022-11-15T08:20:41;10.00;99.90
16321;DHT22;8269;50.990;4.494;2022-11-15T08:23:07;10.00;99.90
16321;DHT22;8269;50.990;4.494;2022-11-15T08:25:34;10.00;99.90
16321;DHT22;8269;50.990;4.494;2022-11-15T08:28:03;10.00;99.90
16321;DHT22;8269;50.990;4.494;2022-11-15T08:30:30;10.00;99.90
16321;DHT22;8269;50.990;4.494;2022-11-15T08:32:57;10.00;99.90
16321;DHT22;8269;50.990;4.494;2022-11-15T08:35:24;10.00;99.90
16321;DHT22;8269;50.990;4.494;2022-11-15T08:37:51;10.00;99.90
16321;DHT22;8269;50.990;4.494;2022-11-15T08:40:17;10.00;99.90
16321;DHT22;8269;50.990;4.494;2022-11-15T08:42:46;10.10;99.90
16321;DHT22;8269;50.990;4.494;2022-11-15T08:45:12;10.10;99.90
16321;DHT22;8269;50.990;4.494;2022-11-15T08:47:37;10.10;99.90
16321;DHT22;8269;50.990;4.494;2022-11-15T08:50:03;10.20;99.90
16321;DHT22;8269;50.990;4.494;2022-11-15T08:52:28;10.20;99.90
16321;DHT22;8269;50.990;4.494;2022-11-15T08:54:54;10.20;99.90
16321;DHT22;8269;50.990;4.494;2022-11-15T08:57:19;10.30;99.90
16321;DHT22;8269;50.990;4.494;2022-11-15T08:59:45;10.40;99.90
16321;DHT22;8269;50.990;4.494;2022-11-15T09:02:11;10.30;99.90
16321;DHT22;8269;50.990;4.494;2022-11-15T09:04:37;10.30;99.90
16321;DHT22;8269;50.990;4.494;2022-11-15T09:07:02;10.40;99.90
16321;DHT22;8269;50.990;4.494;2022-11-15T09:09:28;10.40;99.90
16321;DHT22;8269;50.990;4.494;2022-11-15T09:11:54;10.50;99.90
16321;DHT22;8269;50.990;4.494;2022-11-15T09:14:19;10.60;99.90
16321;DHT22;8269;50.990;4.494;2022-11-15T09:16:45;10.60;99.90
16321;DHT22;8269;50.990;4.494;2022-11-15T09:19:10;10.70;99.90
16321;DHT22;8269;50.990;4.494;2022-11-15T09:21:36;10.70;99.90
16321;DHT22;8269;50.990;4.494;2022-11-15T09:24:01;10.70;99.90
16321;DHT22;8269;50.990;4.494;2022-11-15T09:26:29;10.70;99.90
16321;DHT22;8269;50.990;4.494;2022-11-15T09:28:54;10.60;99.90
16321;DHT22;8269;50.990;4.494;2022-11-15T09:31:20;10.60;99.90
16321;DHT22;8269;50.990;4.494;2022-11-15T09:33:45;10.60;99.90
16321;DHT22;8269;50.990;4.494;2022-11-15T09:36:11;10.60;99.90
16321;DHT22;8269;50.990;4.494;2022-11-15T09:38:37;10.70;99.90
16321;DHT22;8269;50.990;4.494;2022-11-15T09:50:50;11.10;99.90
16321;DHT22;8269;50.990;4.494;2022-11-15T09:53:41;11.20;99.90
16321;DHT22;8269;50.990;4.494;2022-11-15T09:56:20;11.30;99.90
16321;DHT22;8269;50.990;4.494;2022-11-15T10:03:56;11.40;99.90
16321;DHT22;8269;50.990;4.494;2022-11-15T10:06:25;11.50;99.90
16321;DHT22;8269;50.990;4.494;2022-11-15T10:09:02;11.60;99.90
16321;DHT22;8269;50.990;4.494;2022-11-15T10:11:32;11.60;99.90
16321;DHT22;8269;50.990;4.494;2022-11-15T10:14:09;11.60;99.90
16321;DHT22;8269;50.990;4.494;2022-11-15T10:24:50;11.60;99.90
16321;DHT22;8269;50.990;4.494;2022-11-15T10:27:18;11.60;99.90
16321;DHT22;8269;50.990;4.494;2022-11-15T10:29:47;11.60;99.90
16321;DHT22;8269;50.990;4.494;2022-11-15T10:32:14;11.50;99.90
16321;DHT22;8269;50.990;4.494;2022-11-15T10:34:41;11.60;99.90
16321;DHT22;8269;50.990;4.494;2022-11-15T10:37:06;11.60;99.90
16321;DHT22;8269;50.990;4.494;2022-11-15T10:39:32;11.60;99.90
16321;DHT22;8269;50.990;4.494;2022-11-15T10:42:27;11.60;99.90
16321;DHT22;8269;50.990;4.494;2022-11-15T10:44:52;11.70;99.90
16321;DHT22;8269;50.990;4.494;2022-11-15T10:47:30;11.70;99.90
16321;DHT22;8269;50.990;4.494;2022-11-15T10:50:25;11.70;99.90
16321;DHT22;8269;50.990;4.494;2022-11-15T10:52:51;11.70;99.90
16321;DHT22;8269;50.990;4.494;2022-11-15T10:57:51;11.70;99.90
16321;DHT22;8269;50.990;4.494;2022-11-15T11:05:43;11.80;99.90
16321;DHT22;8269;50.990;4.494;2022-11-15T11:10:57;11.80;99.90
16321;DHT22;8269;50.990;4.494;2022-11-15T11:13:24;11.90;99.90
16321;DHT22;8269;50.990;4.494;2022-11-15T11:15:56;11.90;99.90
16321;DHT22;8269;50.990;4.494;2022-11-15T11:18:25;12.00;99.90
16321;DHT22;8269;50.990;4.494;2022-11-15T11:21:01;12.00;99.90
16321;DHT22;8269;50.990;4.494;2022-11-15T11:29:24;12.10;99.90
16321;DHT22;8269;50.990;4.494;2022-11-15T11:40:28;12.10;99.90
16321;DHT22;8269;50.990;4.494;2022-11-15T11:48:57;12.20;99.90
16321;DHT22;8269;50.990;4.494;2022-11-15T11:51:28;12.30;99.90
16321;DHT22;8269;50.990;4.494;2022-11-15T11:56:31;12.40;99.90
16321;DHT22;8269;50.990;4.494;2022-11-15T11:59:15;12.50;99.90
16321;DHT22;8269;50.990;4.494;2022-11-15T12:01:43;12.50;99.90
16321;DHT22;8269;50.990;4.494;2022-11-15T12:04:29;12.60;99.90
16321;DHT22;8269;50.990;4.494;2022-11-15T12:09:32;12.50;99.90
16321;DHT22;8269;50.990;4.494;2022-11-15T12:12:19;12.60;99.90
16321;DHT22;8269;50.990;4.494;2022-11-15T12:14:51;12.60;99.90
16321;DHT22;8269;50.990;4.494;2022-11-15T12:17:22;12.60;99.90
16321;DHT22;8269;50.990;4.494;2022-11-15T12:19:49;12.60;99.90
16321;DHT22;8269;50.990;4.494;2022-11-15T12:22:36;12.70;99.90
16321;DHT22;8269;50.990;4.494;2022-11-15T12:25:19;12.70;99.90
16321;DHT22;8269;50.990;4.494;2022-11-15T12:28:19;12.70;99.90
16321;DHT22;8269;50.990;4.494;2022-11-15T12:30:56;12.70;99.90
16321;DHT22;8269;50.990;4.494;2022-11-15T12:36:03;12.80;99.90
16321;DHT22;8269;50.990;4.494;2022-11-15T12:38:58;12.70;99.90
16321;DHT22;8269;50.990;4.494;2022-11-15T12:43:51;12.80;99.90
16321;DHT22;8269;50.990;4.494;2022-11-15T12:49:00;12.80;99.90
16321;DHT22;8269;50.990;4.494;2022-11-15T13:02:39;12.80;99.90
16321;DHT22;8269;50.990;4.494;2022-11-15T13:15:31;13.00;99.90
16321;DHT22;8269;50.990;4.494;2022-11-15T13:17:58;13.10;99.90
16321;DHT22;8269;50.990;4.494;2022-11-15T13:20:32;13.10;99.90
16321;DHT22;8269;50.990;4.494;2022-11-15T13:28:03;13.20;99.90
16321;DHT22;8269;50.990;4.494;2022-11-15T13:30:34;13.20;99.90
16321;DHT22;8269;50.990;4.494;2022-11-15T13:33:08;13.20;99.90
16321;DHT22;8269;50.990;4.494;2022-11-15T13:35:40;13.20;99.90
16321;DHT22;8269;50.990;4.494;2022-11-15T13:38:11;13.10;99.90
16321;DHT22;8269;50.990;4.494;2022-11-15T13:40:42;13.10;99.90
16321;DHT22;8269;50.990;4.494;2022-11-15T13:48:30;13.00;99.90
16321;DHT22;8269;50.990;4.494;2022-11-15T13:50:57;12.90;99.90
16321;DHT22;8269;50.990;4.494;2022-11-15T13:53:23;12.90;99.90
16321;DHT22;8269;50.990;4.494;2022-11-15T13:55:49;12.90;99.90
16321;DHT22;8269;50.990;4.494;2022-11-15T13:58:16;12.80;99.90
16321;DHT22;8269;50.990;4.494;2022-11-15T14:00:45;12.80;99.90
16321;DHT22;8269;50.990;4.494;2022-11-15T14:03:26;12.80;99.90
16321;DHT22;8269;50.990;4.494;2022-11-15T14:06:12;12.80;99.90
16321;DHT22;8269;50.990;4.494;2022-11-15T14:11:26;12.80;99.90
16321;DHT22;8269;50.990;4.494;2022-11-15T14:14:10;12.90;99.90
16321;DHT22;8269;50.990;4.494;2022-11-15T14:16:52;12.90;99.90
16321;DHT22;8269;50.990;4.494;2022-11-15T14:22:09;12.90;99.90
16321;DHT22;8269;50.990;4.494;2022-11-15T14:24:36;12.90;99.90
16321;DHT22;8269;50.990;4.494;2022-11-15T14:27:24;12.90;99.90
16321;DHT22;8269;50.990;4.494;2022-11-15T14:29:50;12.80;99.90
16321;DHT22;8269;50.990;4.494;2022-11-15T14:34:42;12.80;99.90
16321;DHT22;8269;50.990;4.494;2022-11-15T14:37:28;12.80;99.90
16321;DHT22;8269;50.990;4.494;2022-11-15T14:39:54;12.70;99.90
16321;DHT22;8269;50.990;4.494;2022-11-15T14:42:21;12.70;99.90
16321;DHT22;8269;50.990;4.494;2022-11-15T14:44:47;12.60;99.90
16321;DHT22;8269;50.990;4.494;2022-11-15T14:47:13;12.60;99.90
16321;DHT22;8269;50.990;4.494;2022-11-15T14:49:38;12.50;99.90
16321;DHT22;8269;50.990;4.494;2022-11-15T14:52:36;12.40;99.90
16321;DHT22;8269;50.990;4.494;2022-11-15T14:55:10;12.50;99.90
16321;DHT22;8269;50.990;4.494;2022-11-15T14:57:37;12.40;99.90
16321;DHT22;8269;50.990;4.494;2022-11-15T15:00:03;12.40;99.90
16321;DHT22;8269;50.990;4.494;2022-11-15T15:02:30;12.40;99.90
16321;DHT22;8269;50.990;4.494;2022-11-15T15:04:56;12.30;99.90
16321;DHT22;8269;50.990;4.494;2022-11-15T15:07:26;12.30;99.90
16321;DHT22;8269;50.990;4.494;2022-11-15T15:09:51;12.30;99.90
16321;DHT22;8269;50.990;4.494;2022-11-15T15:12:22;12.20;99.90
16321;DHT22;8269;50.990;4.494;2022-11-15T15:14:49;12.20;99.90
16321;DHT22;8269;50.990;4.494;2022-11-15T15:17:16;12.20;99.90
16321;DHT22;8269;50.990;4.494;2022-11-15T15:19:42;12.20;99.90
16321;DHT22;8269;50.990;4.494;2022-11-15T15:22:16;12.20;99.90
16321;DHT22;8269;50.990;4.494;2022-11-15T15:24:43;12.10;99.90
16321;DHT22;8269;50.990;4.494;2022-11-15T15:27:09;12.10;99.90
16321;DHT22;8269;50.990;4.494;2022-11-15T15:29:34;12.10;99.90
16321;DHT22;8269;50.990;4.494;2022-11-15T15:32:00;12.10;99.90
16321;DHT22;8269;50.990;4.494;2022-11-15T15:34:26;12.00;99.90
16321;DHT22;8269;50.990;4.494;2022-11-15T15:37:19;12.00;99.90
16321;DHT22;8269;50.990;4.494;2022-11-15T15:39:45;12.00;99.90
16321;DHT22;8269;50.990;4.494;2022-11-15T15:42:11;12.00;99.90
16321;DHT22;8269;50.990;4.494;2022-11-15T15:44:36;12.00;99.90
16321;DHT22;8269;50.990;4.494;2022-11-15T15:47:03;11.90;99.90
16321;DHT22;8269;50.990;4.494;2022-11-15T15:49:33;12.00;99.90
16321;DHT22;8269;50.990;4.494;2022-11-15T15:51:58;11.90;99.90
16321;DHT22;8269;50.990;4.494;2022-11-15T15:54:24;11.90;99.90
16321;DHT22;8269;50.990;4.494;2022-11-15T15:56:49;11.80;99.90
16321;DHT22;8269;50.990;4.494;2022-11-15T15:59:15;11.80;99.90
16321;DHT22;8269;50.990;4.494;2022-11-15T16:01:41;11.80;99.90
16321;DHT22;8269;50.990;4.494;2022-11-15T16:04:06;11.80;99.90
16321;DHT22;8269;50.990;4.494;2022-11-15T16:06:41;11.70;99.90
16321;DHT22;8269;50.990;4.494;2022-11-15T16:09:14;11.70;99.90
16321;DHT22;8269;50.990;4.494;2022-11-15T16:11:46;11.70;99.90
16321;DHT22;8269;50.990;4.494;2022-11-15T16:14:12;11.60;99.90
16321;DHT22;8269;50.990;4.494;2022-11-15T16:16:38;11.60;99.90
16321;DHT22;8269;50.990;4.494;2022-11-15T16:19:04;11.60;99.90
16321;DHT22;8269;50.990;4.494;2022-11-15T16:21:30;11.60;99.90
16321;DHT22;8269;50.990;4.494;2022-11-15T16:23:56;11.60;99.90
16321;DHT22;8269;50.990;4.494;2022-11-15T16:26:25;11.60;99.90
16321;DHT22;8269;50.990;4.494;2022-11-15T16:28:51;11.60;99.90
16321;DHT22;8269;50.990;4.494;2022-11-15T16:31:17;11.50;99.90
16321;DHT22;8269;50.990;4.494;2022-11-15T16:33:45;11.60;99.90
16321;DHT22;8269;50.990;4.494;2022-11-15T16:36:25;11.50;99.90
16321;DHT22;8269;50.990;4.494;2022-11-15T16:38:51;11.50;99.90
16321;DHT22;8269;50.990;4.494;2022-11-15T16:41:18;11.50;99.90
16321;DHT22;8269;50.990;4.494;2022-11-15T16:43:47;11.50;99.90
16321;DHT22;8269;50.990;4.494;2022-11-15T16:46:18;11.50;99.90
16321;DHT22;8269;50.990;4.494;2022-11-15T16:48:44;11.50;99.90
16321;DHT22;8269;50.990;4.494;2022-11-15T16:51:10;11.50;99.90
16321;DHT22;8269;50.990;4.494;2022-11-15T16:53:36;11.50;99.90
16321;DHT22;8269;50.990;4.494;2022-11-15T16:56:01;11.50;99.90
16321;DHT22;8269;50.990;4.494;2022-11-15T16:58:27;11.50;99.90
16321;DHT22;8269;50.990;4.494;2022-11-15T17:00:53;11.40;99.90
16321;DHT22;8269;50.990;4.494;2022-11-15T17:03:21;11.40;99.90
16321;DHT22;8269;50.990;4.494;2022-11-15T17:05:47;11.40;99.90
16321;DHT22;8269;50.990;4.494;2022-11-15T17:08:13;11.40;99.90
16321;DHT22;8269;50.990;4.494;2022-11-15T17:10:39;11.50;99.90
16321;DHT22;8269;50.990;4.494;2022-11-15T17:13:12;11.40;99.90
16321;DHT22;8269;50.990;4.494;2022-11-15T17:15:38;11.40;99.90
16321;DHT22;8269;50.990;4.494;2022-11-15T17:18:04;11.50;99.90
16321;DHT22;8269;50.990;4.494;2022-11-15T17:20:31;11.50;99.90
16321;DHT22;8269;50.990;4.494;2022-11-15T17:22:56;11.50;99.90
16321;DHT22;8269;50.990;4.494;2022-11-15T17:25:22;11.50;99.90
16321;DHT22;8269;50.990;4.494;2022-11-15T17:27:48;11.50;99.90
16321;DHT22;8269;50.990;4.494;2022-11-15T17:30:14;11.50;99.90
16321;DHT22;8269;50.990;4.494;2022-11-15T17:32:41;11.50;99.90
16321;DHT22;8269;50.990;4.494;2022-11-15T17:35:08;11.50;99.90
16321;DHT22;8269;50.990;4.494;2022-11-15T17:37:35;11.50;99.90
16321;DHT22;8269;50.990;4.494;2022-11-15T17:40:01;11.50;99.90
16321;DHT22;8269;50.990;4.494;2022-11-15T17:42:26;11.50;99.90
16321;DHT22;8269;50.990;4.494;2022-11-15T17:44:52;11.50;99.90
16321;DHT22;8269;50.990;4.494;2022-11-15T17:47:18;11.50;99.90
16321;DHT22;8269;50.990;4.494;2022-11-15T17:49:43;11.50;99.90
16321;DHT22;8269;50.990;4.494;2022-11-15T17:52:09;11.50;99.90
16321;DHT22;8269;50.990;4.494;2022-11-15T17:54:34;11.50;99.90
16321;DHT22;8269;50.990;4.494;2022-11-15T17:57:00;11.50;99.90
16321;DHT22;8269;50.990;4.494;2022-11-15T17:59:26;11.50;99.90
16321;DHT22;8269;50.990;4.494;2022-11-15T18:01:51;11.50;99.90
16321;DHT22;8269;50.990;4.494;2022-11-15T18:04:18;11.50;99.90
16321;DHT22;8269;50.990;4.494;2022-11-15T18:06:44;11.50;99.90
16321;DHT22;8269;50.990;4.494;2022-11-15T18:09:10;11.50;99.90
16321;DHT22;8269;50.990;4.494;2022-11-15T18:11:38;11.50;99.90
16321;DHT22;8269;50.990;4.494;2022-11-15T18:14:07;11.50;99.90
16321;DHT22;8269;50.990;4.494;2022-11-15T18:16:35;11.50;99.90
16321;DHT22;8269;50.990;4.494;2022-11-15T18:19:01;11.50;99.90